sensor_id;sensor_type;location;lat;lon;timestamp;P1;durP1;ratioP1;P2;durP2;ratioP2
19675;SDS011;39539;52.202;9.876;2022-09-24T00:00:42;5.65;;;5.25;;
19675;SDS011;39539;52.202;9.876;2022-09-24T00:03:08;5.38;;;5.07;;
19675;SDS011;39539;52.202;9.876;2022-09-24T00:05:38;5.20;;;4.90;;
19675;SDS011;39539;52.202;9.876;2022-09-24T00:08:05;5.30;;;4.90;;
19675;SDS011;39539;52.202;9.876;2022-09-24T00:10:35;5.75;;;5.28;;
19675;SDS011;39539;52.202;9.876;2022-09-24T00:13:05;5.68;;;5.22;;
19675;SDS011;39539;52.202;9.876;2022-09-24T00:15:39;6.07;;;5.43;;
19675;SDS011;39539;52.202;9.876;2022-09-24T00:18:06;5.45;;;5.05;;
19675;SDS011;39539;52.202;9.876;2022-09-24T00:20:33;5.75;;;5.25;;
19675;SDS011;39539;52.202;9.876;2022-09-24T00:23:02;5.30;;;4.90;;
19675;SDS011;39539;52.202;9.876;2022-09-24T00:25:28;5.80;;;5.35;;
19675;SDS011;39539;52.202;9.876;2022-09-24T00:28:12;5.80;;;5.30;;
19675;SDS011;39539;52.202;9.876;2022-09-24T00:30:39;5.45;;;5.05;;
19675;SDS011;39539;52.202;9.876;2022-09-24T00:33:06;5.38;;;4.97;;
19675;SDS011;39539;52.202;9.876;2022-09-24T00:35:33;5.97;;;5.40;;
19675;SDS011;39539;52.202;9.876;2022-09-24T00:37:59;5.07;;;4.68;;
19675;SDS011;39539;52.202;9.876;2022-09-24T00:40:28;5.30;;;5.00;;
19675;SDS011;39539;52.202;9.876;2022-09-24T00:42:55;5.00;;;4.70;;
19675;SDS011;39539;52.202;9.876;2022-09-24T00:45:22;4.60;;;4.30;;
19675;SDS011;39539;52.202;9.876;2022-09-24T00:47:48;4.43;;;4.13;;
19675;SDS011;39539;52.202;9.876;2022-09-24T00:50:17;4.40;;;4.18;;
19675;SDS011;39539;52.202;9.876;2022-09-24T00:52:56;4.03;;;3.80;;
19675;SDS011;39539;52.202;9.876;2022-09-24T00:55:25;4.63;;;4.32;;
19675;SDS011;39539;52.202;9.876;2022-09-24T00:57:56;5.28;;;4.88;;
19675;SDS011;39539;52.202;9.876;2022-09-24T01:00:24;5.10;;;4.70;;
19675;SDS011;39539;52.202;9.876;2022-09-24T01:02:52;4.78;;;4.47;;
19675;SDS011;39539;52.202;9.876;2022-09-24T01:05:22;5.15;;;4.75;;
19675;SDS011;39539;52.202;9.876;2022-09-24T01:07:47;5.25;;;4.95;;
19675;SDS011;39539;52.202;9.876;2022-09-24T01:10:14;5.80;;;5.07;;
19675;SDS011;39539;52.202;9.876;2022-09-24T01:13:03;5.75;;;5.32;;
19675;SDS011;39539;52.202;9.876;2022-09-24T01:15:45;5.65;;;5.25;;
19675;SDS011;39539;52.202;9.876;2022-09-24T01:18:22;5.25;;;4.95;;
19675;SDS011;39539;52.202;9.876;2022-09-24T01:20:59;5.45;;;5.13;;
19675;SDS011;39539;52.202;9.876;2022-09-24T01:23:44;5.82;;;5.32;;
19675;SDS011;39539;52.202;9.876;2022-09-24T01:26:22;5.55;;;5.15;;
19675;SDS011;39539;52.202;9.876;2022-09-24T01:32:14;6.20;;;5.80;;
19675;SDS011;39539;52.202;9.876;2022-09-24T01:34:53;6.38;;;5.97;;
19675;SDS011;39539;52.202;9.876;2022-09-24T01:37:23;5.90;;;5.55;;
19675;SDS011;39539;52.202;9.876;2022-09-24T01:39:52;6.28;;;5.82;;
19675;SDS011;39539;52.202;9.876;2022-09-24T01:42:20;6.38;;;5.88;;
19675;SDS011;39539;52.202;9.876;2022-09-24T01:44:47;5.85;;;5.43;;
19675;SDS011;39539;52.202;9.876;2022-09-24T01:47:19;5.78;;;5.28;;
19675;SDS011;39539;52.202;9.876;2022-09-24T01:49:56;5.63;;;5.22;;
19675;SDS011;39539;52.202;9.876;2022-09-24T01:52:26;6.03;;;5.53;;
19675;SDS011;39539;52.202;9.876;2022-09-24T01:54:58;6.28;;;5.88;;
19675;SDS011;39539;52.202;9.876;2022-09-24T01:57:28;6.55;;;6.05;;
19675;SDS011;39539;52.202;9.876;2022-09-24T02:05:15;6.20;;;5.78;;
19675;SDS011;39539;52.202;9.876;2022-09-24T02:07:53;6.50;;;6.00;;
19675;SDS011;39539;52.202;9.876;2022-09-24T02:10:21;6.22;;;5.72;;
19675;SDS011;39539;52.202;9.876;2022-09-24T02:12:51;5.80;;;5.45;;
19675;SDS011;39539;52.202;9.876;2022-09-24T02:15:23;6.30;;;5.90;;
19675;SDS011;39539;52.202;9.876;2022-09-24T02:17:54;5.45;;;5.15;;
19675;SDS011;39539;52.202;9.876;2022-09-24T02:20:22;6.05;;;5.65;;
19675;SDS011;39539;52.202;9.876;2022-09-24T02:22:51;6.03;;;5.63;;
19675;SDS011;39539;52.202;9.876;2022-09-24T02:25:22;5.75;;;5.35;;
19675;SDS011;39539;52.202;9.876;2022-09-24T02:28:03;6.57;;;6.00;;
19675;SDS011;39539;52.202;9.876;2022-09-24T02:30:29;6.68;;;6.07;;
19675;SDS011;39539;52.202;9.876;2022-09-24T02:33:05;6.25;;;5.85;;
19675;SDS011;39539;52.202;9.876;2022-09-24T02:35:53;6.13;;;5.72;;
19675;SDS011;39539;52.202;9.876;2022-09-24T02:38:18;6.00;;;5.60;;
19675;SDS011;39539;52.202;9.876;2022-09-24T02:40:44;6.43;;;6.00;;
19675;SDS011;39539;52.202;9.876;2022-09-24T02:43:12;7.47;;;6.63;;
19675;SDS011;39539;52.202;9.876;2022-09-24T02:45:37;7.20;;;6.80;;
19675;SDS011;39539;52.202;9.876;2022-09-24T02:48:02;6.93;;;6.43;;
19675;SDS011;39539;52.202;9.876;2022-09-24T02:50:28;7.10;;;6.63;;
19675;SDS011;39539;52.202;9.876;2022-09-24T02:52:53;6.82;;;6.32;;
19675;SDS011;39539;52.202;9.876;2022-09-24T02:55:18;8.07;;;7.57;;
19675;SDS011;39539;52.202;9.876;2022-09-24T02:57:44;7.53;;;7.03;;
19675;SDS011;39539;52.202;9.876;2022-09-24T03:00:10;7.40;;;6.80;;
19675;SDS011;39539;52.202;9.876;2022-09-24T03:02:36;7.07;;;6.60;;
19675;SDS011;39539;52.202;9.876;2022-09-24T03:05:01;7.57;;;7.05;;
19675;SDS011;39539;52.202;9.876;2022-09-24T03:07:27;7.25;;;6.75;;
19675;SDS011;39539;52.202;9.876;2022-09-24T03:09:52;7.47;;;6.97;;
19675;SDS011;39539;52.202;9.876;2022-09-24T03:12:17;7.20;;;6.70;;
19675;SDS011;39539;52.202;9.876;2022-09-24T03:14:43;7.03;;;6.60;;
19675;SDS011;39539;52.202;9.876;2022-09-24T03:17:08;8.13;;;7.53;;
19675;SDS011;39539;52.202;9.876;2022-09-24T03:19:33;7.10;;;6.70;;
19675;SDS011;39539;52.202;9.876;2022-09-24T03:21:59;7.32;;;6.90;;
19675;SDS011;39539;52.202;9.876;2022-09-24T03:24:24;7.90;;;7.30;;
19675;SDS011;39539;52.202;9.876;2022-09-24T03:26:49;8.02;;;7.53;;
19675;SDS011;39539;52.202;9.876;2022-09-24T03:29:15;7.30;;;6.90;;
19675;SDS011;39539;52.202;9.876;2022-09-24T03:31:41;8.32;;;7.82;;
19675;SDS011;39539;52.202;9.876;2022-09-24T03:34:06;8.52;;;7.82;;
19675;SDS011;39539;52.202;9.876;2022-09-24T03:36:31;8.52;;;7.97;;
19675;SDS011;39539;52.202;9.876;2022-09-24T03:38:57;7.78;;;7.25;;
19675;SDS011;39539;52.202;9.876;2022-09-24T03:41:23;8.55;;;7.93;;
19675;SDS011;39539;52.202;9.876;2022-09-24T03:43:50;7.68;;;7.18;;
19675;SDS011;39539;52.202;9.876;2022-09-24T03:46:16;8.85;;;8.05;;
19675;SDS011;39539;52.202;9.876;2022-09-24T03:48:42;8.43;;;7.85;;
19675;SDS011;39539;52.202;9.876;2022-09-24T03:51:08;8.77;;;8.07;;
19675;SDS011;39539;52.202;9.876;2022-09-24T03:53:36;7.82;;;7.20;;
19675;SDS011;39539;52.202;9.876;2022-09-24T03:56:03;7.80;;;7.22;;
19675;SDS011;39539;52.202;9.876;2022-09-24T03:58:30;8.15;;;7.55;;
19675;SDS011;39539;52.202;9.876;2022-09-24T04:00:58;8.32;;;7.72;;
19675;SDS011;39539;52.202;9.876;2022-09-24T04:03:24;8.60;;;8.00;;
19675;SDS011;39539;52.202;9.876;2022-09-24T04:05:49;8.77;;;8.20;;
19675;SDS011;39539;52.202;9.876;2022-09-24T04:08:16;8.48;;;7.88;;
19675;SDS011;39539;52.202;9.876;2022-09-24T04:10:46;8.50;;;7.90;;
19675;SDS011;39539;52.202;9.876;2022-09-24T04:13:13;9.32;;;8.57;;
19675;SDS011;39539;52.202;9.876;2022-09-24T04:15:39;8.40;;;7.90;;
19675;SDS011;39539;52.202;9.876;2022-09-24T04:18:04;9.45;;;8.75;;
19675;SDS011;39539;52.202;9.876;2022-09-24T04:20:30;9.88;;;9.07;;
19675;SDS011;39539;52.202;9.876;2022-09-24T04:22:57;9.48;;;8.88;;
19675;SDS011;39539;52.202;9.876;2022-09-24T04:25:24;9.70;;;9.07;;
19675;SDS011;39539;52.202;9.876;2022-09-24T04:27:54;8.75;;;8.25;;
19675;SDS011;39539;52.202;9.876;2022-09-24T04:30:22;9.02;;;8.52;;
19675;SDS011;39539;52.202;9.876;2022-09-24T04:32:48;9.70;;;9.05;;
19675;SDS011;39539;52.202;9.876;2022-09-24T04:35:15;9.48;;;8.77;;
19675;SDS011;39539;52.202;9.876;2022-09-24T04:37:42;10.07;;;9.32;;
19675;SDS011;39539;52.202;9.876;2022-09-24T04:40:07;10.25;;;9.57;;
19675;SDS011;39539;52.202;9.876;2022-09-24T04:42:34;9.57;;;8.75;;
19675;SDS011;39539;52.202;9.876;2022-09-24T04:45:01;10.35;;;9.63;;
19675;SDS011;39539;52.202;9.876;2022-09-24T04:47:27;9.70;;;9.10;;
19675;SDS011;39539;52.202;9.876;2022-09-24T04:49:52;10.18;;;9.48;;
19675;SDS011;39539;52.202;9.876;2022-09-24T04:52:18;10.25;;;9.38;;
19675;SDS011;39539;52.202;9.876;2022-09-24T04:54:43;10.48;;;9.73;;
19675;SDS011;39539;52.202;9.876;2022-09-24T04:57:14;10.40;;;9.70;;
19675;SDS011;39539;52.202;9.876;2022-09-24T04:59:40;10.73;;;9.93;;
19675;SDS011;39539;52.202;9.876;2022-09-24T05:02:06;10.95;;;10.15;;
19675;SDS011;39539;52.202;9.876;2022-09-24T05:04:33;12.70;;;11.85;;
19675;SDS011;39539;52.202;9.876;2022-09-24T05:06:59;11.98;;;11.10;;
19675;SDS011;39539;52.202;9.876;2022-09-24T05:09:25;11.35;;;10.55;;
19675;SDS011;39539;52.202;9.876;2022-09-24T05:11:50;10.98;;;10.27;;
19675;SDS011;39539;52.202;9.876;2022-09-24T05:14:17;10.10;;;9.30;;
19675;SDS011;39539;52.202;9.876;2022-09-24T05:16:42;9.27;;;8.68;;
19675;SDS011;39539;52.202;9.876;2022-09-24T05:19:08;9.70;;;9.00;;
19675;SDS011;39539;52.202;9.876;2022-09-24T05:21:33;9.77;;;8.98;;
19675;SDS011;39539;52.202;9.876;2022-09-24T05:23:58;10.00;;;9.15;;
19675;SDS011;39539;52.202;9.876;2022-09-24T05:26:24;10.85;;;10.15;;
19675;SDS011;39539;52.202;9.876;2022-09-24T05:29:09;10.77;;;10.07;;
19675;SDS011;39539;52.202;9.876;2022-09-24T05:31:34;10.63;;;9.73;;
19675;SDS011;39539;52.202;9.876;2022-09-24T05:34:00;10.38;;;9.57;;
19675;SDS011;39539;52.202;9.876;2022-09-24T05:36:27;9.98;;;9.30;;
19675;SDS011;39539;52.202;9.876;2022-09-24T05:38:53;8.80;;;8.20;;
19675;SDS011;39539;52.202;9.876;2022-09-24T05:41:19;7.57;;;6.97;;
19675;SDS011;39539;52.202;9.876;2022-09-24T05:43:45;8.15;;;7.60;;
19675;SDS011;39539;52.202;9.876;2022-09-24T05:46:11;7.28;;;6.78;;
19675;SDS011;39539;52.202;9.876;2022-09-24T05:48:37;7.82;;;7.13;;
19675;SDS011;39539;52.202;9.876;2022-09-24T05:51:02;7.70;;;6.97;;
19675;SDS011;39539;52.202;9.876;2022-09-24T05:53:29;7.78;;;6.80;;
19675;SDS011;39539;52.202;9.876;2022-09-24T05:55:55;6.78;;;6.38;;
19675;SDS011;39539;52.202;9.876;2022-09-24T05:58:21;7.07;;;6.57;;
19675;SDS011;39539;52.202;9.876;2022-09-24T06:00:47;6.88;;;6.47;;
19675;SDS011;39539;52.202;9.876;2022-09-24T06:03:13;7.75;;;7.15;;
19675;SDS011;39539;52.202;9.876;2022-09-24T06:05:44;6.22;;;5.88;;
19675;SDS011;39539;52.202;9.876;2022-09-24T06:08:11;7.22;;;6.70;;
19675;SDS011;39539;52.202;9.876;2022-09-24T06:10:37;7.05;;;6.45;;
19675;SDS011;39539;52.202;9.876;2022-09-24T06:13:02;6.97;;;6.40;;
19675;SDS011;39539;52.202;9.876;2022-09-24T06:15:28;6.47;;;6.07;;
19675;SDS011;39539;52.202;9.876;2022-09-24T06:17:54;6.88;;;6.40;;
19675;SDS011;39539;52.202;9.876;2022-09-24T06:20:20;6.28;;;5.88;;
19675;SDS011;39539;52.202;9.876;2022-09-24T06:22:49;6.82;;;6.32;;
19675;SDS011;39539;52.202;9.876;2022-09-24T06:25:14;6.78;;;6.38;;
19675;SDS011;39539;52.202;9.876;2022-09-24T06:27:40;8.20;;;7.50;;
19675;SDS011;39539;52.202;9.876;2022-09-24T06:30:05;8.43;;;7.82;;
19675;SDS011;39539;52.202;9.876;2022-09-24T06:32:31;13.07;;;9.10;;
19675;SDS011;39539;52.202;9.876;2022-09-24T06:34:57;8.43;;;7.82;;
19675;SDS011;39539;52.202;9.876;2022-09-24T06:37:22;8.77;;;8.18;;
19675;SDS011;39539;52.202;9.876;2022-09-24T06:39:47;9.23;;;8.50;;
19675;SDS011;39539;52.202;9.876;2022-09-24T06:42:13;7.72;;;7.13;;
19675;SDS011;39539;52.202;9.876;2022-09-24T06:44:38;7.32;;;6.82;;
19675;SDS011;39539;52.202;9.876;2022-09-24T06:47:03;7.80;;;7.30;;
19675;SDS011;39539;52.202;9.876;2022-09-24T06:49:29;7.63;;;7.15;;
19675;SDS011;39539;52.202;9.876;2022-09-24T06:51:55;7.95;;;7.43;;
19675;SDS011;39539;52.202;9.876;2022-09-24T06:54:22;7.85;;;7.25;;
19675;SDS011;39539;52.202;9.876;2022-09-24T06:56:48;8.30;;;7.70;;
19675;SDS011;39539;52.202;9.876;2022-09-24T06:59:14;8.80;;;8.30;;
19675;SDS011;39539;52.202;9.876;2022-09-24T07:01:39;7.95;;;7.35;;
19675;SDS011;39539;52.202;9.876;2022-09-24T07:04:04;8.13;;;7.63;;
19675;SDS011;39539;52.202;9.876;2022-09-24T07:06:30;8.40;;;7.70;;
19675;SDS011;39539;52.202;9.876;2022-09-24T07:09:17;7.63;;;7.03;;
19675;SDS011;39539;52.202;9.876;2022-09-24T07:11:45;7.85;;;7.35;;
19675;SDS011;39539;52.202;9.876;2022-09-24T07:14:11;7.35;;;6.75;;
19675;SDS011;39539;52.202;9.876;2022-09-24T07:16:37;7.25;;;6.72;;
19675;SDS011;39539;52.202;9.876;2022-09-24T07:19:02;6.95;;;6.45;;
19675;SDS011;39539;52.202;9.876;2022-09-24T07:21:28;7.35;;;6.85;;
19675;SDS011;39539;52.202;9.876;2022-09-24T07:23:53;7.07;;;6.57;;
19675;SDS011;39539;52.202;9.876;2022-09-24T07:26:18;6.88;;;6.38;;
19675;SDS011;39539;52.202;9.876;2022-09-24T07:28:44;6.43;;;5.90;;
19675;SDS011;39539;52.202;9.876;2022-09-24T07:31:09;6.60;;;6.20;;
19675;SDS011;39539;52.202;9.876;2022-09-24T07:33:34;6.80;;;6.30;;
19675;SDS011;39539;52.202;9.876;2022-09-24T07:36:03;6.70;;;6.20;;
19675;SDS011;39539;52.202;9.876;2022-09-24T07:38:32;7.50;;;6.47;;
19675;SDS011;39539;52.202;9.876;2022-09-24T07:41:00;7.70;;;7.10;;
19675;SDS011;39539;52.202;9.876;2022-09-24T07:43:27;7.32;;;6.72;;
19675;SDS011;39539;52.202;9.876;2022-09-24T07:45:53;7.47;;;6.97;;
19675;SDS011;39539;52.202;9.876;2022-09-24T07:48:19;7.60;;;7.00;;
19675;SDS011;39539;52.202;9.876;2022-09-24T07:50:45;10.13;;;7.00;;
19675;SDS011;39539;52.202;9.876;2022-09-24T07:53:10;7.35;;;6.68;;
19675;SDS011;39539;52.202;9.876;2022-09-24T07:55:36;6.82;;;6.25;;
19675;SDS011;39539;52.202;9.876;2022-09-24T07:58:04;7.15;;;6.55;;
19675;SDS011;39539;52.202;9.876;2022-09-24T08:00:31;7.35;;;6.65;;
19675;SDS011;39539;52.202;9.876;2022-09-24T08:02:57;7.75;;;7.13;;
19675;SDS011;39539;52.202;9.876;2022-09-24T08:05:23;8.32;;;7.60;;
19675;SDS011;39539;52.202;9.876;2022-09-24T08:07:53;8.52;;;7.93;;
19675;SDS011;39539;52.202;9.876;2022-09-24T08:10:19;8.55;;;7.72;;
19675;SDS011;39539;52.202;9.876;2022-09-24T08:12:45;8.43;;;7.78;;
19675;SDS011;39539;52.202;9.876;2022-09-24T08:15:10;8.25;;;7.47;;
19675;SDS011;39539;52.202;9.876;2022-09-24T08:17:36;7.60;;;7.05;;
19675;SDS011;39539;52.202;9.876;2022-09-24T08:20:01;7.63;;;6.93;;
19675;SDS011;39539;52.202;9.876;2022-09-24T08:22:26;7.65;;;7.15;;
19675;SDS011;39539;52.202;9.876;2022-09-24T08:24:52;7.95;;;7.35;;
19675;SDS011;39539;52.202;9.876;2022-09-24T08:27:17;7.40;;;6.80;;
19675;SDS011;39539;52.202;9.876;2022-09-24T08:29:47;7.55;;;7.05;;
19675;SDS011;39539;52.202;9.876;2022-09-24T08:32:13;7.57;;;7.07;;
19675;SDS011;39539;52.202;9.876;2022-09-24T08:34:38;8.90;;;8.30;;
19675;SDS011;39539;52.202;9.876;2022-09-24T08:37:05;9.15;;;8.40;;
19675;SDS011;39539;52.202;9.876;2022-09-24T08:39:31;9.02;;;8.32;;
19675;SDS011;39539;52.202;9.876;2022-09-24T08:42:01;8.68;;;8.13;;
19675;SDS011;39539;52.202;9.876;2022-09-24T08:44:30;9.32;;;8.63;;
19675;SDS011;39539;52.202;9.876;2022-09-24T08:47:35;9.40;;;8.50;;
19675;SDS011;39539;52.202;9.876;2022-09-24T08:50:18;8.82;;;8.23;;
19675;SDS011;39539;52.202;9.876;2022-09-24T08:55:34;12.60;;;9.38;;
19675;SDS011;39539;52.202;9.876;2022-09-24T09:00:38;10.30;;;9.30;;
19675;SDS011;39539;52.202;9.876;2022-09-24T09:03:40;9.50;;;8.80;;
19675;SDS011;39539;52.202;9.876;2022-09-24T09:09:24;8.27;;;7.57;;
19675;SDS011;39539;52.202;9.876;2022-09-24T09:11:58;9.55;;;8.55;;
19675;SDS011;39539;52.202;9.876;2022-09-24T09:19:57;10.98;;;10.25;;
19675;SDS011;39539;52.202;9.876;2022-09-24T09:22:28;11.68;;;10.65;;
19675;SDS011;39539;52.202;9.876;2022-09-24T09:24:59;12.40;;;11.07;;
19675;SDS011;39539;52.202;9.876;2022-09-24T09:27:35;11.75;;;10.75;;
19675;SDS011;39539;52.202;9.876;2022-09-24T09:30:02;11.00;;;10.10;;
19675;SDS011;39539;52.202;9.876;2022-09-24T09:35:43;12.27;;;11.38;;
19675;SDS011;39539;52.202;9.876;2022-09-24T09:43:19;12.60;;;11.65;;
19675;SDS011;39539;52.202;9.876;2022-09-24T09:45:53;12.90;;;12.00;;
19675;SDS011;39539;52.202;9.876;2022-09-24T09:48:42;14.23;;;13.13;;
19675;SDS011;39539;52.202;9.876;2022-09-24T09:51:12;12.77;;;11.77;;
19675;SDS011;39539;52.202;9.876;2022-09-24T09:53:52;11.80;;;10.82;;
19675;SDS011;39539;52.202;9.876;2022-09-24T09:56:23;13.05;;;11.88;;
19675;SDS011;39539;52.202;9.876;2022-09-24T09:58:51;13.23;;;12.07;;
19675;SDS011;39539;52.202;9.876;2022-09-24T10:01:40;12.50;;;11.40;;
19675;SDS011;39539;52.202;9.876;2022-09-24T10:04:23;12.50;;;11.50;;
19675;SDS011;39539;52.202;9.876;2022-09-24T10:09:30;13.80;;;12.60;;
19675;SDS011;39539;52.202;9.876;2022-09-24T10:12:05;14.25;;;13.15;;
19675;SDS011;39539;52.202;9.876;2022-09-24T10:14:31;14.48;;;13.32;;
19675;SDS011;39539;52.202;9.876;2022-09-24T10:16:57;14.18;;;13.05;;
19675;SDS011;39539;52.202;9.876;2022-09-24T10:19:29;13.80;;;12.80;;
19675;SDS011;39539;52.202;9.876;2022-09-24T10:21:56;12.88;;;11.88;;
19675;SDS011;39539;52.202;9.876;2022-09-24T10:24:23;14.98;;;13.65;;
19675;SDS011;39539;52.202;9.876;2022-09-24T10:26:50;14.55;;;13.45;;
19675;SDS011;39539;52.202;9.876;2022-09-24T10:32:14;15.65;;;14.43;;
19675;SDS011;39539;52.202;9.876;2022-09-24T10:34:42;15.48;;;14.07;;
19675;SDS011;39539;52.202;9.876;2022-09-24T10:37:20;15.70;;;14.40;;
19675;SDS011;39539;52.202;9.876;2022-09-24T10:39:55;16.40;;;14.85;;
19675;SDS011;39539;52.202;9.876;2022-09-24T10:42:25;16.23;;;15.02;;
19675;SDS011;39539;52.202;9.876;2022-09-24T10:44:52;15.82;;;14.63;;
19675;SDS011;39539;52.202;9.876;2022-09-24T10:52:50;15.93;;;14.57;;
19675;SDS011;39539;52.202;9.876;2022-09-24T11:01:02;15.02;;;13.90;;
19675;SDS011;39539;52.202;9.876;2022-09-24T11:09:08;15.38;;;14.05;;
19675;SDS011;39539;52.202;9.876;2022-09-24T11:23:38;14.93;;;13.82;;
19675;SDS011;39539;52.202;9.876;2022-09-24T11:26:13;15.10;;;13.40;;
19675;SDS011;39539;52.202;9.876;2022-09-24T11:28:48;15.13;;;13.88;;
19675;SDS011;39539;52.202;9.876;2022-09-24T11:31:48;13.57;;;12.57;;
19675;SDS011;39539;52.202;9.876;2022-09-24T11:34:42;13.10;;;12.00;;
19675;SDS011;39539;52.202;9.876;2022-09-24T11:57:11;13.77;;;12.68;;
19675;SDS011;39539;52.202;9.876;2022-09-24T12:02:19;13.70;;;12.60;;
19675;SDS011;39539;52.202;9.876;2022-09-24T12:07:29;11.45;;;10.55;;
19675;SDS011;39539;52.202;9.876;2022-09-24T12:10:03;11.15;;;10.13;;
19675;SDS011;39539;52.202;9.876;2022-09-24T12:12:41;10.13;;;9.32;;
19675;SDS011;39539;52.202;9.876;2022-09-24T12:15:19;10.18;;;9.38;;
19675;SDS011;39539;52.202;9.876;2022-09-24T12:18:02;9.82;;;9.07;;
19675;SDS011;39539;52.202;9.876;2022-09-24T12:20:46;9.52;;;8.82;;
19675;SDS011;39539;52.202;9.876;2022-09-24T12:23:16;10.30;;;9.40;;
19675;SDS011;39539;52.202;9.876;2022-09-24T12:25:46;9.65;;;8.82;;
19675;SDS011;39539;52.202;9.876;2022-09-24T12:28:17;10.25;;;9.43;;
19675;SDS011;39539;52.202;9.876;2022-09-24T12:31:03;10.55;;;9.68;;
19675;SDS011;39539;52.202;9.876;2022-09-24T12:34:25;9.82;;;9.13;;
19675;SDS011;39539;52.202;9.876;2022-09-24T12:39:25;9.73;;;8.82;;
19675;SDS011;39539;52.202;9.876;2022-09-24T12:41:57;9.95;;;9.15;;
19675;SDS011;39539;52.202;9.876;2022-09-24T12:44:41;9.65;;;8.85;;
19675;SDS011;39539;52.202;9.876;2022-09-24T12:47:17;9.32;;;8.63;;
19675;SDS011;39539;52.202;9.876;2022-09-24T12:49:53;9.13;;;8.43;;
19675;SDS011;39539;52.202;9.876;2022-09-24T12:52:37;8.70;;;8.10;;
19675;SDS011;39539;52.202;9.876;2022-09-24T12:55:14;9.50;;;8.68;;
19675;SDS011;39539;52.202;9.876;2022-09-24T12:58:03;8.70;;;8.10;;
19675;SDS011;39539;52.202;9.876;2022-09-24T13:02:55;9.25;;;8.55;;
19675;SDS011;39539;52.202;9.876;2022-09-24T13:08:03;9.63;;;8.82;;
19675;SDS011;39539;52.202;9.876;2022-09-24T13:10:55;9.43;;;8.73;;
19675;SDS011;39539;52.202;9.876;2022-09-24T13:13:23;9.30;;;8.50;;
19675;SDS011;39539;52.202;9.876;2022-09-24T13:16:15;10.15;;;9.40;;
19675;SDS011;39539;52.202;9.876;2022-09-24T13:18:49;9.73;;;9.02;;
19675;SDS011;39539;52.202;9.876;2022-09-24T13:21:21;10.05;;;9.10;;
19675;SDS011;39539;52.202;9.876;2022-09-24T13:23:50;10.23;;;9.43;;
19675;SDS011;39539;52.202;9.876;2022-09-24T13:33:43;14.07;;;12.98;;
19675;SDS011;39539;52.202;9.876;2022-09-24T13:36:13;14.52;;;13.52;;
19675;SDS011;39539;52.202;9.876;2022-09-24T13:38:44;15.73;;;14.43;;
19675;SDS011;39539;52.202;9.876;2022-09-24T13:46:59;14.75;;;13.63;;
19675;SDS011;39539;52.202;9.876;2022-09-24T13:49:29;13.52;;;12.52;;
19675;SDS011;39539;52.202;9.876;2022-09-24T13:52:58;11.85;;;10.90;;
19675;SDS011;39539;52.202;9.876;2022-09-24T13:55:00;9.98;;;9.07;;
19675;SDS011;39539;52.202;9.876;2022-09-24T13:57:41;9.82;;;9.13;;
19675;SDS011;39539;52.202;9.876;2022-09-24T14:00:13;9.55;;;8.75;;
19675;SDS011;39539;52.202;9.876;2022-09-24T14:02:50;9.82;;;8.93;;
19675;SDS011;39539;52.202;9.876;2022-09-24T14:05:18;10.60;;;9.75;;
19675;SDS011;39539;52.202;9.876;2022-09-24T14:10:35;10.60;;;9.80;;
19675;SDS011;39539;52.202;9.876;2022-09-24T14:13:01;10.45;;;9.65;;
19675;SDS011;39539;52.202;9.876;2022-09-24T14:15:34;10.43;;;9.63;;
19675;SDS011;39539;52.202;9.876;2022-09-24T14:18:00;11.38;;;10.48;;
19675;SDS011;39539;52.202;9.876;2022-09-24T14:20:31;10.88;;;9.98;;
19675;SDS011;39539;52.202;9.876;2022-09-24T14:22:59;10.77;;;9.98;;
19675;SDS011;39539;52.202;9.876;2022-09-24T14:25:29;12.02;;;10.93;;
19675;SDS011;39539;52.202;9.876;2022-09-24T14:28:00;11.27;;;10.40;;
19675;SDS011;39539;52.202;9.876;2022-09-24T14:30:28;12.07;;;11.13;;
19675;SDS011;39539;52.202;9.876;2022-09-24T14:32:57;12.70;;;11.70;;
19675;SDS011;39539;52.202;9.876;2022-09-24T14:38:02;12.50;;;11.50;;
19675;SDS011;39539;52.202;9.876;2022-09-24T14:40:42;12.02;;;11.13;;
19675;SDS011;39539;52.202;9.876;2022-09-24T14:43:45;13.15;;;12.02;;
19675;SDS011;39539;52.202;9.876;2022-09-24T14:54:38;13.98;;;12.88;;
19675;SDS011;39539;52.202;9.876;2022-09-24T14:57:08;14.45;;;13.35;;
19675;SDS011;39539;52.202;9.876;2022-09-24T14:59:43;13.73;;;12.73;;
19675;SDS011;39539;52.202;9.876;2022-09-24T15:05:07;15.88;;;14.68;;
19675;SDS011;39539;52.202;9.876;2022-09-24T15:07:33;15.50;;;14.40;;
19675;SDS011;39539;52.202;9.876;2022-09-24T15:09:59;15.50;;;14.32;;
19675;SDS011;39539;52.202;9.876;2022-09-24T15:12:27;16.70;;;15.30;;
19675;SDS011;39539;52.202;9.876;2022-09-24T15:14:56;15.98;;;14.68;;
19675;SDS011;39539;52.202;9.876;2022-09-24T15:17:49;13.77;;;12.70;;
19675;SDS011;39539;52.202;9.876;2022-09-24T15:20:14;14.57;;;13.48;;
19675;SDS011;39539;52.202;9.876;2022-09-24T15:22:41;13.90;;;12.73;;
19675;SDS011;39539;52.202;9.876;2022-09-24T15:25:07;13.07;;;11.98;;
19675;SDS011;39539;52.202;9.876;2022-09-24T15:27:33;14.40;;;13.15;;
19675;SDS011;39539;52.202;9.876;2022-09-24T15:30:03;13.55;;;12.45;;
19675;SDS011;39539;52.202;9.876;2022-09-24T15:32:31;13.80;;;12.70;;
19675;SDS011;39539;52.202;9.876;2022-09-24T15:34:59;14.18;;;13.07;;
19675;SDS011;39539;52.202;9.876;2022-09-24T15:37:26;13.60;;;12.43;;
19675;SDS011;39539;52.202;9.876;2022-09-24T15:39:55;14.88;;;13.68;;
19675;SDS011;39539;52.202;9.876;2022-09-24T15:42:23;16.25;;;15.05;;
19675;SDS011;39539;52.202;9.876;2022-09-24T15:44:51;18.08;;;16.65;;
19675;SDS011;39539;52.202;9.876;2022-09-24T15:47:18;18.83;;;17.17;;
19675;SDS011;39539;52.202;9.876;2022-09-24T15:49:47;17.95;;;16.35;;
19675;SDS011;39539;52.202;9.876;2022-09-24T15:52:14;18.42;;;16.88;;
19675;SDS011;39539;52.202;9.876;2022-09-24T15:54:49;17.58;;;16.17;;
19675;SDS011;39539;52.202;9.876;2022-09-24T15:57:15;15.75;;;14.40;;
19675;SDS011;39539;52.202;9.876;2022-09-24T15:59:41;14.52;;;13.32;;
19675;SDS011;39539;52.202;9.876;2022-09-24T16:02:11;14.57;;;13.48;;
19675;SDS011;39539;52.202;9.876;2022-09-24T16:04:42;13.40;;;12.40;;
19675;SDS011;39539;52.202;9.876;2022-09-24T16:07:07;13.23;;;12.23;;
19675;SDS011;39539;52.202;9.876;2022-09-24T16:09:34;14.90;;;13.70;;
19675;SDS011;39539;52.202;9.876;2022-09-24T16:11:59;15.75;;;14.55;;
19675;SDS011;39539;52.202;9.876;2022-09-24T16:14:25;16.48;;;15.18;;
19675;SDS011;39539;52.202;9.876;2022-09-24T16:16:50;16.15;;;14.88;;
19675;SDS011;39539;52.202;9.876;2022-09-24T16:19:16;15.82;;;14.52;;
19675;SDS011;39539;52.202;9.876;2022-09-24T16:21:46;14.00;;;12.95;;
19675;SDS011;39539;52.202;9.876;2022-09-24T16:24:11;14.00;;;12.95;;
19675;SDS011;39539;52.202;9.876;2022-09-24T16:26:37;13.52;;;12.50;;
19675;SDS011;39539;52.202;9.876;2022-09-24T16:29:04;14.23;;;13.05;;
19675;SDS011;39539;52.202;9.876;2022-09-24T16:31:30;13.27;;;12.27;;
19675;SDS011;39539;52.202;9.876;2022-09-24T16:33:56;12.88;;;11.98;;
19675;SDS011;39539;52.202;9.876;2022-09-24T16:36:21;13.88;;;12.77;;
19675;SDS011;39539;52.202;9.876;2022-09-24T16:38:49;12.75;;;11.75;;
19675;SDS011;39539;52.202;9.876;2022-09-24T16:41:15;12.93;;;11.85;;
19675;SDS011;39539;52.202;9.876;2022-09-24T16:43:40;15.00;;;13.80;;
19675;SDS011;39539;52.202;9.876;2022-09-24T16:46:07;16.73;;;15.35;;
19675;SDS011;39539;52.202;9.876;2022-09-24T16:48:34;15.88;;;14.68;;
19675;SDS011;39539;52.202;9.876;2022-09-24T16:51:00;15.20;;;14.00;;
19675;SDS011;39539;52.202;9.876;2022-09-24T16:53:30;12.38;;;11.38;;
19675;SDS011;39539;52.202;9.876;2022-09-24T16:56:04;11.00;;;10.23;;
19675;SDS011;39539;52.202;9.876;2022-09-24T16:58:32;12.52;;;11.63;;
19675;SDS011;39539;52.202;9.876;2022-09-24T17:00:58;13.48;;;12.48;;